createdAt,value
2019-05-06T00:00:13.863Z,0.00
2019-05-06T00:01:12.085Z,0.00
2019-05-06T00:02:13.793Z,0.00
2019-05-06T00:03:13.882Z,0.00
2019-05-06T00:04:14.009Z,0.00
2019-05-06T00:05:14.279Z,0.00
2019-05-06T00:06:14.406Z,0.00
2019-05-06T00:07:13.792Z,0.00
2019-05-06T00:08:14.348Z,0.00
2019-05-06T00:09:14.585Z,0.00
2019-05-06T00:10:13.435Z,0.00
2019-05-06T00:11:14.188Z,0.00
2019-05-06T00:12:14.380Z,0.00
2019-05-06T00:13:14.023Z,0.00
2019-05-06T00:14:14.147Z,0.00
2019-05-06T00:15:14.453Z,0.00
2019-05-06T00:16:14.378Z,0.00
2019-05-06T00:17:14.535Z,0.00
2019-05-06T00:18:13.832Z,0.00
2019-05-06T00:19:13.935Z,0.00
2019-05-06T00:20:14.713Z,0.00
2019-05-06T00:21:14.759Z,0.00
2019-05-06T00:22:14.207Z,0.00
2019-05-06T00:23:14.264Z,0.00
2019-05-06T00:24:14.542Z,0.00
2019-05-06T00:25:14.030Z,0.00
2019-05-06T00:26:13.636Z,0.00
2019-05-06T00:27:14.123Z,0.00
2019-05-06T00:28:13.679Z,0.00
2019-05-06T00:29:13.985Z,0.00
2019-05-06T00:30:14.925Z,0.00
2019-05-06T00:31:16.008Z,0.00
2019-05-06T00:32:15.049Z,0.00
2019-05-06T00:33:13.640Z,0.00
2019-05-06T00:34:13.844Z,0.00
2019-05-06T00:35:14.227Z,0.00
2019-05-06T00:36:14.128Z,0.00
2019-05-06T00:37:14.649Z,0.00
2019-05-06T00:38:13.965Z,0.00
2019-05-06T00:39:14.916Z,0.00
2019-05-06T00:40:14.113Z,0.00
2019-05-06T00:41:14.436Z,0.00
2019-05-06T00:42:13.967Z,0.00
2019-05-06T00:43:14.068Z,0.00
2019-05-06T00:44:14.357Z,0.00
2019-05-06T00:45:13.766Z,0.00
2019-05-06T00:46:13.942Z,0.00
2019-05-06T00:47:13.841Z,0.00
2019-05-06T00:48:14.047Z,0.00
2019-05-06T00:49:14.369Z,0.00
2019-05-06T00:50:14.324Z,0.00
2019-05-06T00:51:13.992Z,0.00
2019-05-06T00:52:14.033Z,0.00
2019-05-06T00:53:14.213Z,0.00
2019-05-06T00:54:14.423Z,0.00
2019-05-06T00:55:14.152Z,0.00
2019-05-06T00:56:14.183Z,0.00
2019-05-06T00:57:14.220Z,0.00
2019-05-06T00:58:14.318Z,0.00
2019-05-06T00:59:14.479Z,0.00
2019-05-06T01:00:14.333Z,0.00
2019-05-06T01:01:25.836Z,0.00
2019-05-06T01:02:14.410Z,0.00
2019-05-06T01:03:14.446Z,0.00
2019-05-06T01:04:14.485Z,0.00
2019-05-06T01:05:14.524Z,0.00
2019-05-06T01:06:14.560Z,0.00
2019-05-06T01:07:14.602Z,0.00
2019-05-06T01:08:14.636Z,0.00
2019-05-06T01:09:14.679Z,0.00
2019-05-06T01:10:14.713Z,0.00
2019-05-06T01:11:14.750Z,0.00
2019-05-06T01:12:14.788Z,0.00
2019-05-06T01:13:14.827Z,0.00
2019-05-06T01:14:14.910Z,0.00
2019-05-06T01:15:14.904Z,0.00
2019-05-06T01:16:15.729Z,0.00
2019-05-06T01:17:14.982Z,0.00
2019-05-06T01:18:15.017Z,0.00
2019-05-06T01:19:15.052Z,0.00
2019-05-06T01:20:15.091Z,0.00
2019-05-06T01:21:15.128Z,0.00
2019-05-06T01:22:15.173Z,0.00
2019-05-06T01:23:15.205Z,0.00
2019-05-06T01:24:15.240Z,0.00
2019-05-06T01:25:15.286Z,0.00
2019-05-06T01:26:15.370Z,0.00
2019-05-06T01:27:15.353Z,0.00
2019-05-06T01:28:15.392Z,0.00
2019-05-06T01:29:15.449Z,0.00
2019-05-06T01:30:15.466Z,0.00
2019-05-06T01:31:15.531Z,0.00
2019-05-06T01:32:15.540Z,0.00
2019-05-06T01:33:15.586Z,0.00
2019-05-06T01:34:15.616Z,0.00
2019-05-06T01:35:15.654Z,0.00
2019-05-06T01:36:15.691Z,0.00
2019-05-06T01:37:15.736Z,0.00
2019-05-06T01:38:15.767Z,0.00
2019-05-06T01:39:15.803Z,0.00
2019-05-06T01:40:15.841Z,0.00
2019-05-06T01:41:15.878Z,0.00
2019-05-06T01:42:15.915Z,0.00
2019-05-06T01:43:15.954Z,0.00
2019-05-06T01:44:15.989Z,0.00
2019-05-06T01:45:16.031Z,0.00
2019-05-06T01:46:16.066Z,0.00
2019-05-06T01:47:16.109Z,0.00
2019-05-06T01:48:16.140Z,0.00
2019-05-06T01:49:16.181Z,0.00
2019-05-06T01:50:16.216Z,0.00
2019-05-06T01:51:16.251Z,0.00
2019-05-06T01:52:16.290Z,0.00
2019-05-06T01:53:16.377Z,0.00
2019-05-06T01:54:16.364Z,0.00
2019-05-06T01:55:16.401Z,0.00
2019-05-06T01:56:16.438Z,0.00
2019-05-06T01:57:16.490Z,0.00
2019-05-06T01:58:16.514Z,0.00
2019-05-06T01:59:16.550Z,0.00
2019-05-06T02:00:16.687Z,0.00
2019-05-06T02:01:16.623Z,0.00
2019-05-06T02:02:16.662Z,0.00
2019-05-06T02:03:16.700Z,0.00
2019-05-06T02:04:16.736Z,0.00
2019-05-06T02:05:16.772Z,0.00
2019-05-06T02:06:16.821Z,0.00
2019-05-06T02:07:16.847Z,0.00
2019-05-06T02:08:16.883Z,0.00
2019-05-06T02:09:16.922Z,0.00
2019-05-06T02:10:16.965Z,0.00
2019-05-06T02:11:16.996Z,0.00
2019-05-06T02:12:17.033Z,0.00
2019-05-06T02:13:17.069Z,0.00
2019-05-06T02:14:17.118Z,0.00
2019-05-06T02:15:17.143Z,0.00
2019-05-06T02:16:17.183Z,0.00
2019-05-06T02:17:17.222Z,0.00
2019-05-06T02:18:17.254Z,0.00
2019-05-06T02:19:17.290Z,0.00
2019-05-06T02:20:17.328Z,0.00
2019-05-06T02:21:17.369Z,0.00
2019-05-06T02:22:17.406Z,0.00
2019-05-06T02:23:17.439Z,0.00
2019-05-06T02:24:17.480Z,0.00
2019-05-06T02:25:17.514Z,0.00
2019-05-06T02:26:17.553Z,0.00
2019-05-06T02:27:17.589Z,0.00
2019-05-06T02:28:17.623Z,0.00
2019-05-06T02:29:17.667Z,0.00
2019-05-06T02:30:17.699Z,0.00
2019-05-06T02:31:17.738Z,0.00
2019-05-06T02:32:26.092Z,0.00
2019-05-06T02:33:17.819Z,0.00
2019-05-06T02:34:17.847Z,0.00
2019-05-06T02:35:17.890Z,0.00
2019-05-06T02:36:17.925Z,0.00
2019-05-06T02:37:17.957Z,0.00
2019-05-06T02:38:17.994Z,0.00
2019-05-06T02:39:18.030Z,0.00
2019-05-06T02:40:18.066Z,0.00
2019-05-06T02:41:18.105Z,0.00
2019-05-06T02:42:18.142Z,0.00
2019-05-06T02:43:18.180Z,0.00
2019-05-06T02:44:18.213Z,0.00
2019-05-06T02:45:18.252Z,0.00
2019-05-06T02:46:18.288Z,0.00
2019-05-06T02:47:18.328Z,0.00
2019-05-06T02:48:18.363Z,0.00
2019-05-06T02:49:18.398Z,0.00
2019-05-06T02:50:18.437Z,0.00
2019-05-06T02:51:18.481Z,0.00
2019-05-06T02:52:18.513Z,0.00
2019-05-06T02:53:18.545Z,0.00
2019-05-06T02:54:18.589Z,0.00
2019-05-06T02:55:18.618Z,0.00
2019-05-06T02:56:18.664Z,0.00
2019-05-06T02:57:18.690Z,0.00
2019-05-06T02:58:18.730Z,0.00
2019-05-06T02:59:18.763Z,0.00
2019-05-06T03:00:18.806Z,0.00
2019-05-06T03:01:18.836Z,0.00
2019-05-06T03:02:37.593Z,0.00
2019-05-06T03:03:18.907Z,0.00
2019-05-06T03:04:18.947Z,0.00
2019-05-06T03:05:18.991Z,0.00
2019-05-06T03:06:19.022Z,0.00
2019-05-06T03:07:19.058Z,4.00
2019-05-06T03:08:19.090Z,4.00
2019-05-06T03:09:19.137Z,0.00
2019-05-06T03:10:19.165Z,0.00
2019-05-06T03:11:19.201Z,4.00
2019-05-06T03:12:19.238Z,4.00
2019-05-06T03:13:19.278Z,4.00
2019-05-06T03:14:19.309Z,4.00
2019-05-06T03:15:19.346Z,4.00
2019-05-06T03:16:19.384Z,8.00
2019-05-06T03:17:19.426Z,4.00
2019-05-06T03:18:19.457Z,8.00
2019-05-06T03:19:19.502Z,8.00
2019-05-06T03:20:19.529Z,8.00
2019-05-06T03:21:19.567Z,12.00
2019-05-06T03:22:19.609Z,12.00
2019-05-06T03:23:19.638Z,16.00
2019-05-06T03:24:19.676Z,16.00
2019-05-06T03:25:19.712Z,20.00
2019-05-06T03:26:19.749Z,20.00
2019-05-06T03:27:19.790Z,24.00
2019-05-06T03:28:22.440Z,28.00
2019-05-06T03:29:19.857Z,28.00
2019-05-06T03:30:25.047Z,32.00
2019-05-06T03:31:25.346Z,36.00
2019-05-06T03:32:24.707Z,44.00
2019-05-06T03:33:45.041Z,48.00
2019-05-06T03:34:43.038Z,56.00
2019-05-06T03:35:40.324Z,64.00
2019-05-06T03:36:27.680Z,72.00
2019-05-06T03:37:20.148Z,84.00
2019-05-06T03:38:22.691Z,92.00
2019-05-06T03:39:23.102Z,100.00
2019-05-06T03:40:22.903Z,112.00
2019-05-06T03:41:23.358Z,124.00
2019-05-06T03:42:22.971Z,136.00
2019-05-06T03:43:23.111Z,144.00
2019-05-06T03:44:23.631Z,156.00
2019-05-06T03:45:20.439Z,168.00
2019-05-06T03:46:23.111Z,176.00
2019-05-06T03:47:23.272Z,188.00
2019-05-06T03:48:23.785Z,200.00
2019-05-06T03:49:20.591Z,212.00
2019-05-06T03:50:23.797Z,228.00
2019-05-06T03:51:23.369Z,240.00
2019-05-06T03:52:23.332Z,256.00
2019-05-06T03:53:23.194Z,272.00
2019-05-06T03:54:23.195Z,292.00
2019-05-06T03:55:23.448Z,308.00
2019-05-06T03:56:23.614Z,328.00
2019-05-06T03:57:23.163Z,348.00
2019-05-06T03:58:26.314Z,364.00
2019-05-06T03:59:23.295Z,388.00
2019-05-06T04:00:23.706Z,416.00
2019-05-06T04:01:23.629Z,444.00
2019-05-06T04:02:23.776Z,472.00
2019-05-06T04:03:28.316Z,500.00
2019-05-06T04:04:23.384Z,532.00
2019-05-06T04:05:23.893Z,560.00
2019-05-06T04:06:23.893Z,592.00
2019-05-06T04:07:23.433Z,628.00
2019-05-06T04:08:23.949Z,664.00
2019-05-06T04:09:24.070Z,704.00
2019-05-06T04:10:22.885Z,736.00
2019-05-06T04:11:22.874Z,772.00
2019-05-06T04:12:23.345Z,820.00
2019-05-06T04:13:23.200Z,864.00
2019-05-06T04:14:23.842Z,908.00
2019-05-06T04:15:23.442Z,952.00
2019-05-06T04:16:23.163Z,988.00
2019-05-06T04:17:23.775Z,1012.00
2019-05-06T04:18:23.816Z,1036.00
2019-05-06T04:19:23.678Z,1068.00
2019-05-06T04:20:23.577Z,1108.00
2019-05-06T04:21:24.066Z,1164.00
2019-05-06T04:22:23.563Z,1232.00
2019-05-06T04:23:23.489Z,1312.00
2019-05-06T04:24:22.893Z,1392.00
2019-05-06T04:25:23.278Z,1456.00
2019-05-06T04:26:23.972Z,1520.00
2019-05-06T04:27:22.837Z,1580.00
2019-05-06T04:28:23.847Z,1660.00
2019-05-06T04:29:24.077Z,1736.00
2019-05-06T04:30:24.262Z,1780.00
2019-05-06T04:31:22.881Z,1776.00
2019-05-06T04:32:23.373Z,1760.00
2019-05-06T04:33:23.659Z,1752.00
2019-05-06T04:34:23.360Z,1756.00
2019-05-06T04:35:22.999Z,1780.00
2019-05-06T04:36:23.868Z,1824.00
2019-05-06T04:37:24.125Z,1888.00
2019-05-06T04:38:23.527Z,1968.00
2019-05-06T04:39:23.461Z,2048.00
2019-05-06T04:40:23.858Z,2136.00
2019-05-06T04:41:23.152Z,2236.00
2019-05-06T04:42:23.334Z,2324.00
2019-05-06T04:43:23.511Z,2416.00
2019-05-06T04:44:23.709Z,2524.00
2019-05-06T04:45:23.684Z,2640.00
2019-05-06T04:46:23.693Z,2768.00
2019-05-06T04:47:24.113Z,2880.00
2019-05-06T04:48:23.901Z,2964.00
2019-05-06T04:49:23.692Z,3040.00
2019-05-06T04:50:24.194Z,3168.00
2019-05-06T04:51:24.820Z,3328.00
2019-05-06T04:52:25.930Z,3512.00
2019-05-06T04:53:23.822Z,3704.00
2019-05-06T04:54:26.169Z,3864.00
2019-05-06T04:55:23.018Z,4028.00
2019-05-06T04:56:23.754Z,4196.00
2019-05-06T04:57:24.033Z,4300.00
2019-05-06T04:58:23.577Z,4364.00
2019-05-06T04:59:23.407Z,4516.00
2019-05-06T05:00:23.443Z,4852.00
2019-05-06T05:01:23.474Z,4940.00
2019-05-06T05:02:23.265Z,4872.00
2019-05-06T05:03:23.300Z,4824.00
2019-05-06T05:04:31.752Z,4808.00
2019-05-06T05:05:23.381Z,4796.00
2019-05-06T05:06:23.413Z,4820.00
2019-05-06T05:07:23.450Z,4880.00
2019-05-06T05:08:23.490Z,4964.00
2019-05-06T05:09:23.528Z,5044.00
2019-05-06T05:10:23.561Z,5100.00
2019-05-06T05:11:23.597Z,5156.00
2019-05-06T05:12:23.634Z,5240.00
2019-05-06T05:13:23.668Z,5344.00
2019-05-06T05:14:25.877Z,5460.00
2019-05-06T05:15:23.740Z,5600.00
2019-05-06T05:16:23.790Z,5796.00
2019-05-06T05:17:23.815Z,6052.00
2019-05-06T05:18:23.857Z,6404.00
2019-05-06T05:19:23.896Z,6932.00
2019-05-06T05:20:36.866Z,7752.00
2019-05-06T05:21:23.962Z,8564.00
2019-05-06T05:22:24.007Z,9120.00
2019-05-06T05:23:24.044Z,9160.00
2019-05-06T05:24:24.073Z,8664.00
2019-05-06T05:25:24.126Z,8128.00
2019-05-06T05:26:24.148Z,7768.00
2019-05-06T05:27:24.183Z,7460.00
2019-05-06T05:28:24.221Z,7344.00
2019-05-06T05:29:24.258Z,7456.00
2019-05-06T05:30:24.294Z,7668.00
2019-05-06T05:31:24.350Z,7884.00
2019-05-06T05:32:26.817Z,8104.00
2019-05-06T05:33:24.417Z,8284.00
2019-05-06T05:34:37.109Z,8380.00
2019-05-06T05:35:24.479Z,8524.00
2019-05-06T05:36:24.518Z,8716.00
2019-05-06T05:37:24.572Z,8952.00
2019-05-06T05:38:24.596Z,9096.00
2019-05-06T05:39:24.630Z,9060.00
2019-05-06T05:40:24.667Z,9000.00
2019-05-06T05:41:24.705Z,8944.00
2019-05-06T05:42:24.742Z,9116.00
2019-05-06T05:43:24.778Z,9208.00
2019-05-06T05:44:24.826Z,9304.00
2019-05-06T05:45:24.854Z,9356.00
2019-05-06T05:46:24.943Z,9248.00
2019-05-06T05:47:24.928Z,9032.00
2019-05-06T05:48:24.966Z,8940.00
2019-05-06T05:49:25.008Z,8984.00
2019-05-06T05:50:25.041Z,9132.00
2019-05-06T05:51:25.078Z,9276.00
2019-05-06T05:52:25.129Z,9244.00
2019-05-06T05:53:25.154Z,9380.00
2019-05-06T05:54:25.191Z,9372.00
2019-05-06T05:55:25.231Z,9204.00
2019-05-06T05:56:25.270Z,8844.00
2019-05-06T05:57:25.307Z,8828.00
2019-05-06T05:58:25.353Z,8976.00
2019-05-06T05:59:25.382Z,9084.00
2019-05-06T06:00:25.480Z,9592.00
2019-05-06T06:01:25.472Z,10012.00
2019-05-06T06:02:25.503Z,10112.00
2019-05-06T06:03:25.540Z,9912.00
2019-05-06T06:04:25.572Z,9916.00
2019-05-06T06:05:25.613Z,10028.00
2019-05-06T06:06:25.652Z,10296.00
2019-05-06T06:07:25.687Z,10728.00
2019-05-06T06:08:25.727Z,11252.00
2019-05-06T06:09:25.763Z,11996.00
2019-05-06T06:10:25.804Z,12272.00
2019-05-06T06:11:25.841Z,12416.00
2019-05-06T06:12:25.878Z,12764.00
2019-05-06T06:13:25.917Z,12908.00
2019-05-06T06:14:25.971Z,12940.00
2019-05-06T06:15:25.993Z,12892.00
2019-05-06T06:16:26.047Z,12728.00
2019-05-06T06:17:26.078Z,12580.00
2019-05-06T06:18:26.108Z,12744.00
2019-05-06T06:19:26.147Z,12996.00
2019-05-06T06:20:26.188Z,12772.00
2019-05-06T06:21:28.190Z,12628.00
2019-05-06T06:22:26.264Z,12724.00
2019-05-06T06:23:26.305Z,12980.00
2019-05-06T06:24:26.346Z,13176.00
2019-05-06T06:25:26.390Z,13012.00
2019-05-06T06:26:26.421Z,13028.00
2019-05-06T06:27:26.458Z,13296.00
2019-05-06T06:28:26.496Z,13612.00
2019-05-06T06:29:26.546Z,13764.00
2019-05-06T06:30:26.606Z,13584.00
2019-05-06T06:31:26.627Z,13612.00
2019-05-06T06:32:26.686Z,13796.00
2019-05-06T06:33:26.701Z,13904.00
2019-05-06T06:34:26.734Z,13688.00
2019-05-06T06:35:26.776Z,13536.00
2019-05-06T06:36:26.859Z,13492.00
2019-05-06T06:37:26.912Z,13388.00
2019-05-06T06:38:26.953Z,13228.00
2019-05-06T06:39:26.980Z,13120.00
2019-05-06T06:40:26.979Z,13300.00
2019-05-06T06:41:27.013Z,13592.00
2019-05-06T06:42:27.052Z,13704.00
2019-05-06T06:43:27.194Z,13932.00
2019-05-06T06:44:27.142Z,14344.00
2019-05-06T06:45:27.178Z,14560.00
2019-05-06T06:46:27.216Z,14304.00
2019-05-06T06:47:27.253Z,13976.00
2019-05-06T06:48:27.983Z,13896.00
2019-05-06T06:49:27.333Z,13648.00
2019-05-06T06:50:27.377Z,12976.00
2019-05-06T06:51:27.414Z,12040.00
2019-05-06T06:52:27.451Z,11152.00
2019-05-06T06:53:27.494Z,10476.00
2019-05-06T06:54:27.531Z,10108.00
2019-05-06T06:55:27.571Z,10028.00
2019-05-06T06:56:27.612Z,10192.00
2019-05-06T06:57:27.653Z,10424.00
2019-05-06T06:58:27.692Z,10540.00
2019-05-06T06:59:27.732Z,10412.00
2019-05-06T07:00:27.776Z,10244.00
2019-05-06T07:01:27.824Z,9844.00
2019-05-06T07:02:27.856Z,9684.00
2019-05-06T07:03:27.892Z,9760.00
2019-05-06T07:04:27.933Z,10128.00
2019-05-06T07:05:28.450Z,10816.00
2019-05-06T07:06:28.039Z,11812.00
2019-05-06T07:07:40.355Z,12792.00
2019-05-06T07:08:34.881Z,13740.00
2019-05-06T07:09:29.695Z,14456.00
2019-05-06T07:10:28.177Z,15028.00
2019-05-06T07:11:28.212Z,15308.00
2019-05-06T07:12:28.281Z,15324.00
2019-05-06T07:13:28.304Z,15380.00
2019-05-06T07:14:28.334Z,15524.00
2019-05-06T07:15:28.387Z,15916.00
2019-05-06T07:16:28.414Z,16448.00
2019-05-06T07:17:28.461Z,16576.00
2019-05-06T07:18:28.494Z,16704.00
2019-05-06T07:19:28.542Z,16800.00
2019-05-06T07:20:28.572Z,16928.00
2019-05-06T07:21:29.051Z,17056.00
2019-05-06T07:22:28.655Z,17152.00
2019-05-06T07:23:28.694Z,17568.00
2019-05-06T07:24:28.733Z,17920.00
2019-05-06T07:25:28.777Z,18144.00
2019-05-06T07:26:28.815Z,18368.00
2019-05-06T07:27:28.857Z,18272.00
2019-05-06T07:28:28.897Z,17920.00
2019-05-06T07:29:28.942Z,17664.00
2019-05-06T07:30:28.977Z,17280.00
2019-05-06T07:31:29.020Z,17088.00
2019-05-06T07:32:29.058Z,17088.00
2019-05-06T07:33:29.098Z,17088.00
2019-05-06T07:34:29.140Z,16992.00
2019-05-06T07:35:38.532Z,16864.00
2019-05-06T07:36:29.219Z,16896.00
2019-05-06T07:37:29.266Z,16992.00
2019-05-06T07:38:29.304Z,17056.00
2019-05-06T07:39:29.341Z,17248.00
2019-05-06T07:40:29.385Z,17376.00
2019-05-06T07:41:29.426Z,17440.00
2019-05-06T07:42:29.470Z,17088.00
2019-05-06T07:43:29.504Z,16928.00
2019-05-06T07:44:29.547Z,16928.00
2019-05-06T07:45:29.596Z,16864.00
2019-05-06T07:46:29.629Z,16928.00
2019-05-06T07:47:29.668Z,16928.00
2019-05-06T07:48:31.883Z,17184.00
2019-05-06T07:49:29.751Z,17280.00
2019-05-06T07:50:29.792Z,17280.00
2019-05-06T07:51:29.837Z,17312.00
2019-05-06T07:52:29.874Z,17280.00
2019-05-06T07:53:31.997Z,17120.00
2019-05-06T07:54:29.965Z,16896.00
2019-05-06T07:55:30.010Z,16736.00
2019-05-06T07:56:32.064Z,16704.00
2019-05-06T07:57:30.081Z,16928.00
2019-05-06T07:58:32.136Z,17088.00
2019-05-06T07:59:30.163Z,16960.00
2019-05-06T08:00:32.558Z,17056.00
2019-05-06T08:01:30.246Z,17248.00
2019-05-06T08:02:32.093Z,17408.00
2019-05-06T08:03:32.810Z,17312.00
2019-05-06T08:04:32.317Z,17088.00
2019-05-06T08:05:32.406Z,17056.00
2019-05-06T08:06:32.134Z,17376.00
2019-05-06T08:07:33.115Z,17632.00
2019-05-06T08:08:32.869Z,17888.00
2019-05-06T08:09:32.589Z,18496.00
2019-05-06T08:10:32.931Z,18912.00
2019-05-06T08:11:32.844Z,19104.00
2019-05-06T08:12:32.642Z,19264.00
2019-05-06T08:13:32.304Z,19296.00
2019-05-06T08:14:32.915Z,19168.00
2019-05-06T08:15:32.586Z,18944.00
2019-05-06T08:16:31.910Z,18592.00
2019-05-06T08:17:32.995Z,18432.00
2019-05-06T08:18:32.970Z,18560.00
2019-05-06T08:19:33.380Z,18880.00
2019-05-06T08:20:32.476Z,19680.00
2019-05-06T08:21:32.644Z,20704.00
2019-05-06T08:22:33.282Z,21056.00
2019-05-06T08:23:32.552Z,21056.00
2019-05-06T08:24:33.226Z,21056.00
2019-05-06T08:25:32.932Z,20736.00
2019-05-06T08:26:32.288Z,20384.00
2019-05-06T08:27:32.921Z,19904.00
2019-05-06T08:28:40.626Z,19648.00
2019-05-06T08:29:33.031Z,19200.00
2019-05-06T08:30:32.388Z,18976.00
2019-05-06T08:31:32.736Z,18656.00
2019-05-06T08:32:32.168Z,18336.00
2019-05-06T08:33:32.767Z,18240.00
2019-05-06T08:34:33.958Z,18304.00
2019-05-06T08:35:33.163Z,18176.00
2019-05-06T08:36:32.924Z,17792.00
2019-05-06T08:37:32.204Z,17312.00
2019-05-06T08:38:32.685Z,16896.00
2019-05-06T08:39:32.638Z,16672.00
2019-05-06T08:40:32.229Z,16416.00
2019-05-06T08:41:33.204Z,15724.00
2019-05-06T08:42:32.938Z,15284.00
2019-05-06T08:43:32.661Z,14952.00
2019-05-06T08:44:32.298Z,14668.00
2019-05-06T08:45:32.472Z,14448.00
2019-05-06T08:46:32.857Z,14200.00
2019-05-06T08:47:32.991Z,13892.00
2019-05-06T08:48:32.492Z,13496.00
2019-05-06T08:49:32.246Z,13252.00
2019-05-06T08:50:32.590Z,13276.00
2019-05-06T08:51:33.166Z,13436.00
2019-05-06T08:52:32.366Z,13776.00
2019-05-06T08:53:32.951Z,14324.00
2019-05-06T08:54:32.542Z,14924.00
2019-05-06T08:55:32.691Z,15472.00
2019-05-06T08:56:32.531Z,16032.00
2019-05-06T08:57:32.574Z,16448.00
2019-05-06T08:58:32.618Z,16896.00
2019-05-06T08:59:32.654Z,17248.00
2019-05-06T09:00:32.698Z,17632.00
2019-05-06T09:01:32.823Z,18080.00
2019-05-06T09:02:32.780Z,18560.00
2019-05-06T09:03:32.849Z,18912.00
2019-05-06T09:04:32.868Z,18976.00
2019-05-06T09:05:33.160Z,18432.00
2019-05-06T09:06:34.372Z,17952.00
2019-05-06T09:07:32.990Z,17760.00
2019-05-06T09:08:33.043Z,17728.00
2019-05-06T09:09:33.075Z,17664.00
2019-05-06T09:10:33.113Z,17504.00
2019-05-06T09:11:33.153Z,17472.00
2019-05-06T09:12:33.195Z,17568.00
2019-05-06T09:13:33.245Z,17728.00
2019-05-06T09:14:33.279Z,17600.00
2019-05-06T09:15:33.337Z,17472.00
2019-05-06T09:16:33.369Z,17696.00
2019-05-06T09:17:33.403Z,18368.00
2019-05-06T09:18:33.447Z,19264.00
2019-05-06T09:19:33.487Z,20000.00
2019-05-06T09:20:33.531Z,19968.00
2019-05-06T09:21:33.774Z,18688.00
2019-05-06T09:22:33.616Z,17088.00
2019-05-06T09:23:33.656Z,15936.00
2019-05-06T09:24:33.697Z,15120.00
2019-05-06T09:25:33.741Z,14744.00
2019-05-06T09:26:33.783Z,14360.00
2019-05-06T09:27:33.824Z,13824.00
2019-05-06T09:28:34.065Z,13408.00
2019-05-06T09:29:33.912Z,13104.00
2019-05-06T09:30:33.963Z,12832.00
2019-05-06T09:31:33.995Z,13020.00
2019-05-06T09:32:36.037Z,13460.00
2019-05-06T09:33:34.130Z,13792.00
2019-05-06T09:34:34.126Z,13968.00
2019-05-06T09:35:34.166Z,14056.00
2019-05-06T09:36:43.858Z,14244.00
2019-05-06T09:37:34.251Z,14604.00
2019-05-06T09:38:34.295Z,15064.00
2019-05-06T09:39:34.337Z,15576.00
2019-05-06T09:40:34.378Z,16184.00
2019-05-06T09:41:34.445Z,17088.00
2019-05-06T09:42:34.466Z,18080.00
2019-05-06T09:43:34.511Z,18848.00
2019-05-06T09:44:34.561Z,18944.00
2019-05-06T09:45:34.601Z,18784.00
2019-05-06T09:46:34.644Z,18688.00
2019-05-06T09:47:34.779Z,18784.00
2019-05-06T09:48:34.727Z,18880.00
2019-05-06T09:49:34.773Z,18624.00
2019-05-06T09:50:34.820Z,18464.00
2019-05-06T09:51:34.852Z,18528.00
2019-05-06T09:52:34.893Z,18688.00
2019-05-06T09:53:34.936Z,18944.00
2019-05-06T09:54:34.984Z,19328.00
2019-05-06T09:55:35.027Z,19872.00
2019-05-06T09:56:35.065Z,20736.00
2019-05-06T09:57:35.107Z,21216.00
2019-05-06T09:58:35.163Z,21152.00
2019-05-06T09:59:35.198Z,21120.00
2019-05-06T10:00:35.236Z,21344.00
2019-05-06T10:01:35.278Z,21536.00
2019-05-06T10:02:35.324Z,21728.00
2019-05-06T10:03:35.368Z,21632.00
2019-05-06T10:04:35.410Z,21568.00
2019-05-06T10:05:35.455Z,21312.00
2019-05-06T10:06:35.500Z,20832.00
2019-05-06T10:07:35.541Z,20320.00
2019-05-06T10:08:35.584Z,19968.00
2019-05-06T10:09:35.626Z,19776.00
2019-05-06T10:10:35.721Z,19904.00
2019-05-06T10:11:35.714Z,19968.00
2019-05-06T10:12:35.761Z,19968.00
2019-05-06T10:13:35.803Z,19936.00
2019-05-06T10:14:35.846Z,19648.00
2019-05-06T10:15:35.901Z,19616.00
2019-05-06T10:16:35.935Z,19840.00
2019-05-06T10:17:35.980Z,20384.00
2019-05-06T10:18:36.023Z,20800.00
2019-05-06T10:19:36.066Z,20928.00
2019-05-06T10:20:36.111Z,20896.00
2019-05-06T10:21:36.159Z,20832.00
2019-05-06T10:22:36.200Z,20384.00
2019-05-06T10:23:36.248Z,19872.00
2019-05-06T10:24:36.290Z,19328.00
2019-05-06T10:25:36.334Z,18880.00
2019-05-06T10:26:36.382Z,18720.00
2019-05-06T10:27:36.420Z,18784.00
2019-05-06T10:28:36.466Z,18912.00
2019-05-06T10:29:36.516Z,19040.00
2019-05-06T10:30:36.555Z,19392.00
2019-05-06T10:31:36.651Z,19904.00
2019-05-06T10:32:36.643Z,20320.00
2019-05-06T10:33:36.689Z,20512.00
2019-05-06T10:34:36.731Z,20704.00
2019-05-06T10:35:36.776Z,20864.00
2019-05-06T10:36:36.826Z,20992.00
2019-05-06T10:37:36.864Z,21024.00
2019-05-06T10:38:36.908Z,20992.00
2019-05-06T10:39:36.953Z,20928.00
2019-05-06T10:40:48.652Z,20704.00
2019-05-06T10:41:37.050Z,20256.00
2019-05-06T10:42:37.087Z,19744.00
2019-05-06T10:43:37.130Z,19424.00
2019-05-06T10:44:37.175Z,18976.00
2019-05-06T10:45:37.218Z,18528.00
2019-05-06T10:46:37.264Z,18144.00
2019-05-06T10:47:37.309Z,17856.00
2019-05-06T10:48:37.349Z,17600.00
2019-05-06T10:49:37.396Z,17376.00
2019-05-06T10:50:37.439Z,17472.00
2019-05-06T10:51:37.490Z,18304.00
2019-05-06T10:52:37.530Z,19712.00
2019-05-06T10:53:37.567Z,20928.00
2019-05-06T10:54:37.613Z,20672.00
2019-05-06T10:55:37.656Z,19360.00
2019-05-06T10:56:49.806Z,17056.00
2019-05-06T10:57:40.321Z,14660.00
2019-05-06T10:58:37.796Z,12844.00
2019-05-06T10:59:37.832Z,11424.00
2019-05-06T11:00:37.873Z,10352.00
2019-05-06T11:01:37.924Z,9500.00
2019-05-06T11:02:37.962Z,8720.00
2019-05-06T11:03:38.003Z,7964.00
2019-05-06T11:04:38.045Z,7368.00
2019-05-06T11:10:40.432Z,6424.00
2019-05-06T11:11:35.089Z,6596.00
2019-05-06T11:12:32.614Z,6816.00
2019-05-06T11:13:32.233Z,7052.00
2019-05-06T11:14:32.904Z,7312.00
2019-05-06T11:15:32.986Z,7616.00
2019-05-06T11:16:33.127Z,7940.00
2019-05-06T11:17:32.620Z,8360.00
2019-05-06T11:18:33.492Z,8928.00
2019-05-06T11:19:33.064Z,9676.00
2019-05-06T11:20:33.476Z,10540.00
2019-05-06T11:21:32.860Z,11472.00
2019-05-06T11:22:32.711Z,12532.00
2019-05-06T11:23:33.561Z,13656.00
2019-05-06T11:24:32.658Z,14812.00
2019-05-06T11:25:32.330Z,16128.00
2019-05-06T11:26:31.406Z,17184.00
2019-05-06T11:27:32.673Z,18080.00
2019-05-06T11:28:34.864Z,18848.00
2019-05-06T11:29:33.956Z,19424.00
2019-05-06T11:30:33.149Z,19872.00
2019-05-06T11:31:33.214Z,20288.00
2019-05-06T11:32:33.042Z,20544.00
2019-05-06T11:33:32.925Z,20640.00
2019-05-06T11:34:32.581Z,20800.00
2019-05-06T11:35:32.565Z,21088.00
2019-05-06T11:36:32.314Z,21376.00
2019-05-06T11:37:43.765Z,21856.00
2019-05-06T11:38:32.293Z,22304.00
2019-05-06T11:39:32.275Z,22560.00
2019-05-06T11:40:33.225Z,22464.00
2019-05-06T11:41:32.294Z,21952.00
2019-05-06T11:42:35.668Z,21088.00
2019-05-06T11:43:32.537Z,19936.00
2019-05-06T11:44:32.413Z,18496.00
2019-05-06T11:45:32.319Z,16992.00
2019-05-06T11:46:32.315Z,15380.00
2019-05-06T11:47:32.651Z,14380.00
2019-05-06T11:48:32.801Z,13284.00
2019-05-06T11:49:32.740Z,12884.00
2019-05-06T11:50:33.434Z,13240.00
2019-05-06T11:51:33.056Z,13756.00
2019-05-06T11:52:34.672Z,14044.00
2019-05-06T11:53:32.709Z,14408.00
2019-05-06T11:54:33.734Z,14932.00
2019-05-06T11:55:38.447Z,15648.00
2019-05-06T11:56:47.592Z,16204.00
2019-05-06T11:57:32.737Z,16800.00
2019-05-06T11:58:32.780Z,17152.00
2019-05-06T11:59:32.828Z,17696.00
2019-05-06T12:00:35.789Z,18048.00
2019-05-06T12:01:33.090Z,18240.00
2019-05-06T12:02:33.135Z,18272.00
2019-05-06T12:03:33.008Z,18144.00
2019-05-06T12:04:33.059Z,17824.00
2019-05-06T12:05:33.106Z,17056.00
2019-05-06T12:06:33.274Z,15404.00
2019-05-06T12:07:33.400Z,14084.00
2019-05-06T12:08:33.220Z,12880.00
2019-05-06T12:09:33.537Z,11960.00
2019-05-06T12:10:33.297Z,11540.00
2019-05-06T12:11:33.347Z,11204.00
2019-05-06T12:12:33.382Z,11064.00
2019-05-06T12:13:33.842Z,11360.00
2019-05-06T12:14:33.468Z,11576.00
2019-05-06T12:15:33.513Z,12080.00
2019-05-06T12:16:33.750Z,12908.00
2019-05-06T12:17:33.597Z,13412.00
2019-05-06T12:18:33.644Z,13392.00
2019-05-06T12:19:33.683Z,12960.00
2019-05-06T12:20:33.732Z,12296.00